sensor_id;sensor_type;location;lat;lon;timestamp;P1;durP1;ratioP1;P2;durP2;ratioP2
71570;SDS011;59407;42.682;23.322;2024-03-07T05:10:51;4.23;;;2.00;;
71570;SDS011;59407;42.682;23.322;2024-03-07T05:13:17;3.80;;;2.20;;
71570;SDS011;59407;42.682;23.322;2024-03-07T05:15:44;3.80;;;2.07;;
71570;SDS011;59407;42.682;23.322;2024-03-07T05:18:13;3.42;;;1.98;;
71570;SDS011;59407;42.682;23.322;2024-03-07T05:20:39;4.30;;;2.20;;
71570;SDS011;59407;42.682;23.322;2024-03-07T05:23:05;5.00;;;2.20;;
71570;SDS011;59407;42.682;23.322;2024-03-07T05:25:31;4.35;;;2.50;;
71570;SDS011;59407;42.682;23.322;2024-03-07T05:27:59;4.22;;;2.22;;
71570;SDS011;59407;42.682;23.322;2024-03-07T05:30:28;5.07;;;2.80;;
71570;SDS011;59407;42.682;23.322;2024-03-07T05:32:54;7.03;;;3.10;;
71570;SDS011;59407;42.682;23.322;2024-03-07T05:35:20;5.18;;;3.33;;
71570;SDS011;59407;42.682;23.322;2024-03-07T05:37:47;4.00;;;2.60;;
71570;SDS011;59407;42.682;23.322;2024-03-07T05:40:15;6.97;;;3.10;;
71570;SDS011;59407;42.682;23.322;2024-03-07T05:42:41;5.30;;;3.17;;
71570;SDS011;59407;42.682;23.322;2024-03-07T05:45:06;4.70;;;2.90;;
71570;SDS011;59407;42.682;23.322;2024-03-07T05:47:33;8.85;;;3.50;;
71570;SDS011;59407;42.682;23.322;2024-03-07T05:49:59;6.13;;;3.58;;
71570;SDS011;59407;42.682;23.322;2024-03-07T05:52:28;6.68;;;3.67;;
71570;SDS011;59407;42.682;23.322;2024-03-07T05:54:54;6.70;;;3.60;;
71570;SDS011;59407;42.682;23.322;2024-03-07T05:57:22;6.90;;;3.80;;
71570;SDS011;59407;42.682;23.322;2024-03-07T05:59:47;6.80;;;3.78;;
71570;SDS011;59407;42.682;23.322;2024-03-07T06:02:13;7.13;;;4.17;;
71570;SDS011;59407;42.682;23.322;2024-03-07T06:04:40;5.70;;;3.00;;
71570;SDS011;59407;42.682;23.322;2024-03-07T06:07:08;7.05;;;4.18;;
71570;SDS011;59407;42.682;23.322;2024-03-07T06:09:36;8.45;;;4.93;;
71570;SDS011;59407;42.682;23.322;2024-03-07T06:12:01;7.60;;;4.93;;
71570;SDS011;59407;42.682;23.322;2024-03-07T06:14:31;7.43;;;3.70;;
71570;SDS011;59407;42.682;23.322;2024-03-07T06:16:57;5.65;;;3.22;;
71570;SDS011;59407;42.682;23.322;2024-03-07T06:19:23;6.47;;;3.40;;
71570;SDS011;59407;42.682;23.322;2024-03-07T06:21:51;8.75;;;3.05;;
71570;SDS011;59407;42.682;23.322;2024-03-07T06:24:19;4.93;;;2.90;;
71570;SDS011;59407;42.682;23.322;2024-03-07T06:26:47;6.82;;;4.03;;
71570;SDS011;59407;42.682;23.322;2024-03-07T06:29:25;5.68;;;3.50;;
71570;SDS011;59407;42.682;23.322;2024-03-07T06:31:55;6.50;;;2.95;;
71570;SDS011;59407;42.682;23.322;2024-03-07T06:34:22;6.85;;;3.92;;
71570;SDS011;59407;42.682;23.322;2024-03-07T06:36:49;9.43;;;5.20;;
71570;SDS011;59407;42.682;23.322;2024-03-07T06:39:15;8.63;;;4.78;;
71570;SDS011;59407;42.682;23.322;2024-03-07T06:41:41;5.45;;;3.60;;
71570;SDS011;59407;42.682;23.322;2024-03-07T06:44:10;6.50;;;3.73;;
71570;SDS011;59407;42.682;23.322;2024-03-07T06:46:36;8.88;;;4.30;;
71570;SDS011;59407;42.682;23.322;2024-03-07T06:49:06;6.68;;;4.18;;
71570;SDS011;59407;42.682;23.322;2024-03-07T06:51:36;7.22;;;4.28;;
71570;SDS011;59407;42.682;23.322;2024-03-07T06:54:02;8.25;;;3.88;;
71570;SDS011;59407;42.682;23.322;2024-03-07T06:56:28;5.47;;;3.63;;
71570;SDS011;59407;42.682;23.322;2024-03-07T06:58:53;6.22;;;3.42;;
71570;SDS011;59407;42.682;23.322;2024-03-07T07:01:23;5.87;;;3.53;;
71570;SDS011;59407;42.682;23.322;2024-03-07T07:03:50;6.28;;;3.70;;
71570;SDS011;59407;42.682;23.322;2024-03-07T07:06:16;7.88;;;4.20;;
71570;SDS011;59407;42.682;23.322;2024-03-07T07:08:43;6.80;;;3.92;;
71570;SDS011;59407;42.682;23.322;2024-03-07T07:11:11;9.25;;;4.30;;
71570;SDS011;59407;42.682;23.322;2024-03-07T07:13:38;5.50;;;3.57;;
71570;SDS011;59407;42.682;23.322;2024-03-07T07:16:08;5.93;;;3.10;;
71570;SDS011;59407;42.682;23.322;2024-03-07T07:18:35;8.32;;;3.50;;
71570;SDS011;59407;42.682;23.322;2024-03-07T07:21:09;8.07;;;4.05;;
71570;SDS011;59407;42.682;23.322;2024-03-07T07:23:36;6.10;;;3.58;;
71570;SDS011;59407;42.682;23.322;2024-03-07T07:26:03;7.90;;;3.90;;
71570;SDS011;59407;42.682;23.322;2024-03-07T07:28:30;5.63;;;3.60;;
71570;SDS011;59407;42.682;23.322;2024-03-07T07:30:58;9.05;;;3.00;;
71570;SDS011;59407;42.682;23.322;2024-03-07T07:33:23;5.17;;;2.67;;
71570;SDS011;59407;42.682;23.322;2024-03-07T07:35:49;5.65;;;3.45;;
71570;SDS011;59407;42.682;23.322;2024-03-07T07:38:15;4.50;;;3.28;;
71570;SDS011;59407;42.682;23.322;2024-03-07T07:40:44;5.53;;;3.45;;
71570;SDS011;59407;42.682;23.322;2024-03-07T07:43:12;5.20;;;3.23;;
71570;SDS011;59407;42.682;23.322;2024-03-07T07:45:39;6.53;;;3.65;;
71570;SDS011;59407;42.682;23.322;2024-03-07T07:48:08;6.32;;;3.65;;
71570;SDS011;59407;42.682;23.322;2024-03-07T07:50:39;6.38;;;3.00;;
71570;SDS011;59407;42.682;23.322;2024-03-07T07:53:08;5.63;;;3.60;;
71570;SDS011;59407;42.682;23.322;2024-03-07T07:55:39;11.63;;;3.80;;
71570;SDS011;59407;42.682;23.322;2024-03-07T07:58:07;7.20;;;3.17;;
71570;SDS011;59407;42.682;23.322;2024-03-07T08:00:38;5.05;;;2.60;;
71570;SDS011;59407;42.682;23.322;2024-03-07T08:03:09;4.20;;;2.40;;
71570;SDS011;59407;42.682;23.322;2024-03-07T08:05:36;5.90;;;3.22;;
71570;SDS011;59407;42.682;23.322;2024-03-07T08:08:02;5.83;;;3.20;;
71570;SDS011;59407;42.682;23.322;2024-03-07T08:10:31;4.47;;;2.85;;
71570;SDS011;59407;42.682;23.322;2024-03-07T08:12:57;4.05;;;2.72;;
71570;SDS011;59407;42.682;23.322;2024-03-07T08:15:24;6.43;;;3.20;;
71570;SDS011;59407;42.682;23.322;2024-03-07T08:17:51;4.40;;;2.58;;
71570;SDS011;59407;42.682;23.322;2024-03-07T08:20:17;3.73;;;2.13;;
71570;SDS011;59407;42.682;23.322;2024-03-07T08:22:45;3.65;;;2.33;;
71570;SDS011;59407;42.682;23.322;2024-03-07T08:25:12;5.25;;;2.65;;
71570;SDS011;59407;42.682;23.322;2024-03-07T08:27:39;4.07;;;2.25;;
71570;SDS011;59407;42.682;23.322;2024-03-07T08:30:07;4.60;;;2.72;;
71570;SDS011;59407;42.682;23.322;2024-03-07T08:32:45;3.70;;;2.17;;
71570;SDS011;59407;42.682;23.322;2024-03-07T08:35:12;4.47;;;2.40;;
71570;SDS011;59407;42.682;23.322;2024-03-07T08:37:49;5.22;;;3.45;;
71570;SDS011;59407;42.682;23.322;2024-03-07T08:40:19;4.57;;;2.50;;
71570;SDS011;59407;42.682;23.322;2024-03-07T08:42:46;3.97;;;2.70;;
71570;SDS011;59407;42.682;23.322;2024-03-07T08:45:22;5.18;;;2.70;;
71570;SDS011;59407;42.682;23.322;2024-03-07T08:47:52;4.65;;;2.78;;
71570;SDS011;59407;42.682;23.322;2024-03-07T08:50:22;3.97;;;2.25;;
71570;SDS011;59407;42.682;23.322;2024-03-07T08:52:49;3.90;;;2.50;;
71570;SDS011;59407;42.682;23.322;2024-03-07T08:57:53;6.53;;;3.05;;
71570;SDS011;59407;42.682;23.322;2024-03-07T09:00:21;5.47;;;2.80;;
71570;SDS011;59407;42.682;23.322;2024-03-07T09:02:51;6.03;;;2.42;;
71570;SDS011;59407;42.682;23.322;2024-03-07T09:05:27;5.93;;;2.87;;
71570;SDS011;59407;42.682;23.322;2024-03-07T09:10:22;5.60;;;2.85;;
71570;SDS011;59407;42.682;23.322;2024-03-07T09:12:55;4.53;;;3.08;;
71570;SDS011;59407;42.682;23.322;2024-03-07T09:15:20;8.82;;;4.13;;
71570;SDS011;59407;42.682;23.322;2024-03-07T09:17:50;7.60;;;3.20;;
71570;SDS011;59407;42.682;23.322;2024-03-07T09:20:16;5.07;;;2.40;;
71570;SDS011;59407;42.682;23.322;2024-03-07T09:22:42;3.93;;;2.30;;
71570;SDS011;59407;42.682;23.322;2024-03-07T09:25:08;5.78;;;3.25;;
71570;SDS011;59407;42.682;23.322;2024-03-07T09:27:36;5.28;;;2.95;;
71570;SDS011;59407;42.682;23.322;2024-03-07T09:30:02;4.40;;;2.67;;
71570;SDS011;59407;42.682;23.322;2024-03-07T09:32:31;5.38;;;2.88;;
71570;SDS011;59407;42.682;23.322;2024-03-07T09:34:59;4.13;;;2.30;;
71570;SDS011;59407;42.682;23.322;2024-03-07T09:37:26;4.63;;;2.50;;
71570;SDS011;59407;42.682;23.322;2024-03-07T09:39:52;4.80;;;2.72;;
71570;SDS011;59407;42.682;23.322;2024-03-07T09:42:19;4.63;;;3.08;;
71570;SDS011;59407;42.682;23.322;2024-03-07T09:44:46;5.22;;;3.58;;
71570;SDS011;59407;42.682;23.322;2024-03-07T09:47:13;5.40;;;3.03;;
71570;SDS011;59407;42.682;23.322;2024-03-07T09:49:41;4.72;;;2.85;;
71570;SDS011;59407;42.682;23.322;2024-03-07T09:52:07;4.85;;;2.97;;
71570;SDS011;59407;42.682;23.322;2024-03-07T09:54:38;6.55;;;2.53;;
71570;SDS011;59407;42.682;23.322;2024-03-07T09:57:08;4.53;;;2.58;;
71570;SDS011;59407;42.682;23.322;2024-03-07T09:59:37;6.33;;;2.80;;
71570;SDS011;59407;42.682;23.322;2024-03-07T10:02:06;5.03;;;2.67;;
71570;SDS011;59407;42.682;23.322;2024-03-07T10:07:26;5.13;;;3.00;;
71570;SDS011;59407;42.682;23.322;2024-03-07T10:09:54;6.15;;;3.40;;
71570;SDS011;59407;42.682;23.322;2024-03-07T10:12:24;6.17;;;3.57;;
71570;SDS011;59407;42.682;23.322;2024-03-07T10:14:53;6.57;;;3.30;;
71570;SDS011;59407;42.682;23.322;2024-03-07T10:17:27;4.47;;;2.95;;
71570;SDS011;59407;42.682;23.322;2024-03-07T10:20:00;5.55;;;3.20;;
71570;SDS011;59407;42.682;23.322;2024-03-07T10:22:26;5.95;;;3.22;;
71570;SDS011;59407;42.682;23.322;2024-03-07T10:24:53;4.27;;;2.90;;
71570;SDS011;59407;42.682;23.322;2024-03-07T10:27:20;5.00;;;2.80;;
71570;SDS011;59407;42.682;23.322;2024-03-07T10:29:47;6.38;;;3.05;;
71570;SDS011;59407;42.682;23.322;2024-03-07T10:32:20;7.97;;;4.30;;
71570;SDS011;59407;42.682;23.322;2024-03-07T10:34:46;4.95;;;2.92;;
71570;SDS011;59407;42.682;23.322;2024-03-07T10:37:15;8.33;;;4.33;;
71570;SDS011;59407;42.682;23.322;2024-03-07T10:39:45;4.78;;;2.88;;
71570;SDS011;59407;42.682;23.322;2024-03-07T10:42:15;5.10;;;2.80;;
71570;SDS011;59407;42.682;23.322;2024-03-07T10:44:48;6.03;;;3.00;;
71570;SDS011;59407;42.682;23.322;2024-03-07T10:47:17;8.13;;;3.70;;
71570;SDS011;59407;42.682;23.322;2024-03-07T10:52:54;5.10;;;2.70;;
71570;SDS011;59407;42.682;23.322;2024-03-07T11:01:32;4.55;;;2.38;;
71570;SDS011;59407;42.682;23.322;2024-03-07T11:04:04;5.53;;;3.20;;
71570;SDS011;59407;42.682;23.322;2024-03-07T11:06:31;5.93;;;3.20;;
71570;SDS011;59407;42.682;23.322;2024-03-07T11:09:02;5.25;;;2.97;;
71570;SDS011;59407;42.682;23.322;2024-03-07T11:11:39;6.50;;;3.60;;
71570;SDS011;59407;42.682;23.322;2024-03-07T11:14:13;6.32;;;3.85;;
71570;SDS011;59407;42.682;23.322;2024-03-07T11:16:41;5.53;;;3.07;;
71570;SDS011;59407;42.682;23.322;2024-03-07T11:19:26;6.55;;;3.47;;
71570;SDS011;59407;42.682;23.322;2024-03-07T11:21:54;5.18;;;3.30;;
71570;SDS011;59407;42.682;23.322;2024-03-07T11:24:30;7.15;;;3.05;;
71570;SDS011;59407;42.682;23.322;2024-03-07T11:26:58;4.70;;;2.40;;
71570;SDS011;59407;42.682;23.322;2024-03-07T11:32:14;4.68;;;2.85;;
71570;SDS011;59407;42.682;23.322;2024-03-07T11:34:41;5.30;;;3.15;;
71570;SDS011;59407;42.682;23.322;2024-03-07T11:37:07;5.68;;;3.13;;
71570;SDS011;59407;42.682;23.322;2024-03-07T11:39:47;6.10;;;2.70;;
71570;SDS011;59407;42.682;23.322;2024-03-07T11:44:49;8.05;;;3.95;;
71570;SDS011;59407;42.682;23.322;2024-03-07T11:47:14;5.60;;;2.88;;
71570;SDS011;59407;42.682;23.322;2024-03-07T11:49:43;6.15;;;3.53;;
71570;SDS011;59407;42.682;23.322;2024-03-07T11:52:13;6.03;;;3.70;;
71570;SDS011;59407;42.682;23.322;2024-03-07T11:54:41;4.90;;;2.97;;
71570;SDS011;59407;42.682;23.322;2024-03-07T11:59:45;6.20;;;3.13;;
71570;SDS011;59407;42.682;23.322;2024-03-07T12:02:17;7.05;;;4.15;;
71570;SDS011;59407;42.682;23.322;2024-03-07T12:04:47;7.75;;;4.20;;
71570;SDS011;59407;42.682;23.322;2024-03-07T12:07:16;6.23;;;3.50;;
71570;SDS011;59407;42.682;23.322;2024-03-07T12:09:47;5.45;;;2.80;;
71570;SDS011;59407;42.682;23.322;2024-03-07T12:12:19;6.88;;;3.40;;
71570;SDS011;59407;42.682;23.322;2024-03-07T12:14:47;4.72;;;3.08;;
71570;SDS011;59407;42.682;23.322;2024-03-07T12:17:17;5.63;;;2.92;;
71570;SDS011;59407;42.682;23.322;2024-03-07T12:19:43;8.20;;;3.13;;
71570;SDS011;59407;42.682;23.322;2024-03-07T12:22:09;4.75;;;2.30;;
71570;SDS011;59407;42.682;23.322;2024-03-07T12:24:38;6.88;;;3.00;;
71570;SDS011;59407;42.682;23.322;2024-03-07T12:27:09;5.53;;;3.03;;
71570;SDS011;59407;42.682;23.322;2024-03-07T12:29:36;4.55;;;2.65;;
71570;SDS011;59407;42.682;23.322;2024-03-07T12:32:08;5.20;;;3.15;;
71570;SDS011;59407;42.682;23.322;2024-03-07T12:34:37;4.57;;;2.13;;
71570;SDS011;59407;42.682;23.322;2024-03-07T12:37:09;7.25;;;3.25;;
71570;SDS011;59407;42.682;23.322;2024-03-07T12:39:34;6.70;;;3.80;;
71570;SDS011;59407;42.682;23.322;2024-03-07T12:42:11;5.65;;;3.67;;
71570;SDS011;59407;42.682;23.322;2024-03-07T12:44:42;6.45;;;4.03;;
71570;SDS011;59407;42.682;23.322;2024-03-07T12:47:12;7.30;;;4.20;;
71570;SDS011;59407;42.682;23.322;2024-03-07T12:49:42;8.07;;;4.30;;
71570;SDS011;59407;42.682;23.322;2024-03-07T12:52:09;7.17;;;4.37;;
71570;SDS011;59407;42.682;23.322;2024-03-07T12:54:40;8.55;;;4.95;;
71570;SDS011;59407;42.682;23.322;2024-03-07T12:57:09;7.03;;;4.43;;
71570;SDS011;59407;42.682;23.322;2024-03-07T12:59:41;7.05;;;3.72;;
71570;SDS011;59407;42.682;23.322;2024-03-07T13:02:08;7.97;;;4.22;;
71570;SDS011;59407;42.682;23.322;2024-03-07T13:04:36;8.47;;;3.93;;
71570;SDS011;59407;42.682;23.322;2024-03-07T13:07:06;6.90;;;3.70;;
71570;SDS011;59407;42.682;23.322;2024-03-07T13:09:32;7.47;;;4.25;;
71570;SDS011;59407;42.682;23.322;2024-03-07T13:12:02;7.20;;;4.07;;
71570;SDS011;59407;42.682;23.322;2024-03-07T13:14:34;10.20;;;4.35;;
71570;SDS011;59407;42.682;23.322;2024-03-07T13:17:01;9.23;;;4.90;;
71570;SDS011;59407;42.682;23.322;2024-03-07T13:19:31;7.80;;;3.97;;
71570;SDS011;59407;42.682;23.322;2024-03-07T13:22:03;9.75;;;4.45;;
71570;SDS011;59407;42.682;23.322;2024-03-07T13:24:31;7.80;;;4.60;;
71570;SDS011;59407;42.682;23.322;2024-03-07T13:26:57;7.13;;;4.00;;
71570;SDS011;59407;42.682;23.322;2024-03-07T13:29:22;7.63;;;4.33;;
71570;SDS011;59407;42.682;23.322;2024-03-07T13:31:51;7.35;;;3.60;;
71570;SDS011;59407;42.682;23.322;2024-03-07T13:34:17;8.57;;;3.50;;
71570;SDS011;59407;42.682;23.322;2024-03-07T13:36:43;8.13;;;3.70;;
71570;SDS011;59407;42.682;23.322;2024-03-07T13:39:12;6.70;;;2.55;;
71570;SDS011;59407;42.682;23.322;2024-03-07T13:41:41;4.83;;;2.30;;
71570;SDS011;59407;42.682;23.322;2024-03-07T13:44:33;6.10;;;2.97;;
71570;SDS011;59407;42.682;23.322;2024-03-07T13:47:00;7.15;;;3.88;;
71570;SDS011;59407;42.682;23.322;2024-03-07T13:49:26;10.57;;;6.95;;
71570;SDS011;59407;42.682;23.322;2024-03-07T13:51:55;5.10;;;3.35;;
71570;SDS011;59407;42.682;23.322;2024-03-07T13:54:35;6.73;;;3.43;;
71570;SDS011;59407;42.682;23.322;2024-03-07T14:12:02;9.95;;;4.40;;
71570;SDS011;59407;42.682;23.322;2024-03-07T14:32:31;9.90;;;5.10;;
71570;SDS011;59407;42.682;23.322;2024-03-07T14:37:55;9.80;;;5.10;;
71570;SDS011;59407;42.682;23.322;2024-03-07T14:40:32;8.00;;;4.93;;
71570;SDS011;59407;42.682;23.322;2024-03-07T14:42:58;11.07;;;4.10;;
71570;SDS011;59407;42.682;23.322;2024-03-07T14:45:30;9.20;;;4.80;;
71570;SDS011;59407;42.682;23.322;2024-03-07T14:48:01;7.85;;;4.50;;
71570;SDS011;59407;42.682;23.322;2024-03-07T14:50:29;9.20;;;5.05;;
71570;SDS011;59407;42.682;23.322;2024-03-07T14:52:57;12.75;;;6.47;;
71570;SDS011;59407;42.682;23.322;2024-03-07T14:55:24;9.23;;;5.43;;
71570;SDS011;59407;42.682;23.322;2024-03-07T14:57:50;11.10;;;6.13;;
71570;SDS011;59407;42.682;23.322;2024-03-07T15:00:15;9.03;;;5.53;;
71570;SDS011;59407;42.682;23.322;2024-03-07T15:02:51;13.60;;;6.68;;
71570;SDS011;59407;42.682;23.322;2024-03-07T15:05:21;12.10;;;5.95;;
71570;SDS011;59407;42.682;23.322;2024-03-07T15:07:48;11.63;;;5.80;;
71570;SDS011;59407;42.682;23.322;2024-03-07T15:10:18;18.33;;;8.97;;
71570;SDS011;59407;42.682;23.322;2024-03-07T15:12:45;12.20;;;6.40;;
71570;SDS011;59407;42.682;23.322;2024-03-07T15:15:14;14.27;;;7.72;;
71570;SDS011;59407;42.682;23.322;2024-03-07T15:17:40;12.10;;;7.13;;
71570;SDS011;59407;42.682;23.322;2024-03-07T15:20:07;11.50;;;6.63;;
71570;SDS011;59407;42.682;23.322;2024-03-07T15:22:41;15.15;;;7.03;;
71570;SDS011;59407;42.682;23.322;2024-03-07T15:25:12;13.40;;;5.78;;
71570;SDS011;59407;42.682;23.322;2024-03-07T15:27:40;9.48;;;5.85;;
71570;SDS011;59407;42.682;23.322;2024-03-07T15:30:06;11.48;;;6.18;;
71570;SDS011;59407;42.682;23.322;2024-03-07T15:32:39;10.97;;;6.73;;
71570;SDS011;59407;42.682;23.322;2024-03-07T15:35:07;13.75;;;7.32;;
71570;SDS011;59407;42.682;23.322;2024-03-07T15:37:38;16.40;;;6.53;;
71570;SDS011;59407;42.682;23.322;2024-03-07T15:40:07;10.90;;;6.05;;
71570;SDS011;59407;42.682;23.322;2024-03-07T15:42:42;12.75;;;6.43;;
71570;SDS011;59407;42.682;23.322;2024-03-07T15:45:22;11.70;;;6.30;;
71570;SDS011;59407;42.682;23.322;2024-03-07T15:47:55;10.38;;;6.07;;
71570;SDS011;59407;42.682;23.322;2024-03-07T15:52:59;13.77;;;6.80;;
71570;SDS011;59407;42.682;23.322;2024-03-07T15:55:25;11.48;;;6.53;;
71570;SDS011;59407;42.682;23.322;2024-03-07T15:57:54;12.80;;;6.17;;
71570;SDS011;59407;42.682;23.322;2024-03-07T16:02:54;10.70;;;5.75;;
71570;SDS011;59407;42.682;23.322;2024-03-07T16:05:26;13.43;;;5.95;;
71570;SDS011;59407;42.682;23.322;2024-03-07T16:11:06;12.77;;;6.90;;
71570;SDS011;59407;42.682;23.322;2024-03-07T16:13:38;13.82;;;6.78;;
71570;SDS011;59407;42.682;23.322;2024-03-07T16:16:11;11.48;;;6.55;;
71570;SDS011;59407;42.682;23.322;2024-03-07T16:18:40;15.38;;;6.80;;
71570;SDS011;59407;42.682;23.322;2024-03-07T16:21:07;9.77;;;6.18;;
71570;SDS011;59407;42.682;23.322;2024-03-07T16:23:34;14.40;;;6.57;;
71570;SDS011;59407;42.682;23.322;2024-03-07T16:26:05;11.52;;;6.63;;
71570;SDS011;59407;42.682;23.322;2024-03-07T16:28:31;15.10;;;7.40;;
71570;SDS011;59407;42.682;23.322;2024-03-07T16:30:58;14.82;;;7.63;;
71570;SDS011;59407;42.682;23.322;2024-03-07T16:33:26;14.50;;;7.18;;
71570;SDS011;59407;42.682;23.322;2024-03-07T16:35:56;12.83;;;6.97;;
71570;SDS011;59407;42.682;23.322;2024-03-07T16:38:23;15.05;;;8.30;;
71570;SDS011;59407;42.682;23.322;2024-03-07T16:43:17;14.50;;;7.40;;
71570;SDS011;59407;42.682;23.322;2024-03-07T16:45:43;16.15;;;8.65;;
71570;SDS011;59407;42.682;23.322;2024-03-07T16:48:10;14.93;;;8.13;;
71570;SDS011;59407;42.682;23.322;2024-03-07T16:50:36;11.57;;;6.82;;
71570;SDS011;59407;42.682;23.322;2024-03-07T16:53:05;14.90;;;7.33;;
71570;SDS011;59407;42.682;23.322;2024-03-07T16:55:32;17.67;;;9.65;;
71570;SDS011;59407;42.682;23.322;2024-03-07T16:57:58;18.58;;;10.70;;
71570;SDS011;59407;42.682;23.322;2024-03-07T17:00:28;20.67;;;10.30;;
71570;SDS011;59407;42.682;23.322;2024-03-07T17:03:04;19.33;;;10.20;;
71570;SDS011;59407;42.682;23.322;2024-03-07T17:05:32;17.45;;;9.18;;
71570;SDS011;59407;42.682;23.322;2024-03-07T17:08:04;15.18;;;8.85;;
71570;SDS011;59407;42.682;23.322;2024-03-07T17:10:32;15.07;;;8.00;;
71570;SDS011;59407;42.682;23.322;2024-03-07T17:13:01;16.45;;;8.15;;
71570;SDS011;59407;42.682;23.322;2024-03-07T17:15:27;15.40;;;8.27;;
71570;SDS011;59407;42.682;23.322;2024-03-07T17:17:55;21.35;;;8.98;;
71570;SDS011;59407;42.682;23.322;2024-03-07T17:20:22;16.35;;;8.63;;
71570;SDS011;59407;42.682;23.322;2024-03-07T17:22:49;18.33;;;8.30;;
71570;SDS011;59407;42.682;23.322;2024-03-07T17:25:19;16.25;;;8.32;;
71570;SDS011;59407;42.682;23.322;2024-03-07T17:27:46;19.67;;;9.60;;
71570;SDS011;59407;42.682;23.322;2024-03-07T17:30:15;18.92;;;8.52;;
71570;SDS011;59407;42.682;23.322;2024-03-07T17:32:45;18.80;;;10.20;;
71570;SDS011;59407;42.682;23.322;2024-03-07T17:35:11;20.20;;;8.98;;
71570;SDS011;59407;42.682;23.322;2024-03-07T17:37:39;18.77;;;8.80;;
71570;SDS011;59407;42.682;23.322;2024-03-07T17:40:07;21.00;;;10.27;;
71570;SDS011;59407;42.682;23.322;2024-03-07T17:45:27;21.40;;;10.25;;
71570;SDS011;59407;42.682;23.322;2024-03-07T17:47:58;20.83;;;10.38;;
71570;SDS011;59407;42.682;23.322;2024-03-07T17:50:24;21.50;;;10.53;;
71570;SDS011;59407;42.682;23.322;2024-03-07T17:53:16;18.90;;;10.18;;
71570;SDS011;59407;42.682;23.322;2024-03-07T17:55:45;20.75;;;11.27;;
71570;SDS011;59407;42.682;23.322;2024-03-07T17:58:11;19.67;;;10.10;;
71570;SDS011;59407;42.682;23.322;2024-03-07T18:00:39;16.00;;;7.27;;
71570;SDS011;59407;42.682;23.322;2024-03-07T18:03:07;12.82;;;7.00;;
71570;SDS011;59407;42.682;23.322;2024-03-07T18:05:36;13.70;;;7.28;;
71570;SDS011;59407;42.682;23.322;2024-03-07T18:08:06;11.27;;;5.78;;
71570;SDS011;59407;42.682;23.322;2024-03-07T18:10:36;13.80;;;5.90;;
71570;SDS011;59407;42.682;23.322;2024-03-07T18:13:05;13.10;;;7.23;;
71570;SDS011;59407;42.682;23.322;2024-03-07T18:15:38;9.52;;;5.45;;
71570;SDS011;59407;42.682;23.322;2024-03-07T18:18:05;8.10;;;4.85;;
71570;SDS011;59407;42.682;23.322;2024-03-07T18:20:43;9.98;;;5.53;;
71570;SDS011;59407;42.682;23.322;2024-03-07T18:23:12;9.25;;;5.30;;
71570;SDS011;59407;42.682;23.322;2024-03-07T18:25:38;9.47;;;5.57;;
71570;SDS011;59407;42.682;23.322;2024-03-07T18:28:05;9.45;;;4.60;;
71570;SDS011;59407;42.682;23.322;2024-03-07T18:30:32;12.52;;;5.20;;
71570;SDS011;59407;42.682;23.322;2024-03-07T18:33:00;11.30;;;6.43;;
71570;SDS011;59407;42.682;23.322;2024-03-07T18:35:30;13.75;;;6.28;;
71570;SDS011;59407;42.682;23.322;2024-03-07T18:38:00;8.17;;;3.97;;
71570;SDS011;59407;42.682;23.322;2024-03-07T18:40:26;6.45;;;4.20;;
71570;SDS011;59407;42.682;23.322;2024-03-07T18:42:58;7.95;;;4.25;;
71570;SDS011;59407;42.682;23.322;2024-03-07T18:45:31;7.68;;;4.32;;
71570;SDS011;59407;42.682;23.322;2024-03-07T18:47:57;6.45;;;3.10;;
71570;SDS011;59407;42.682;23.322;2024-03-07T18:50:31;5.85;;;3.35;;
71570;SDS011;59407;42.682;23.322;2024-03-07T18:53:04;6.33;;;3.17;;
71570;SDS011;59407;42.682;23.322;2024-03-07T18:55:30;5.72;;;3.00;;
71570;SDS011;59407;42.682;23.322;2024-03-07T18:58:01;4.65;;;2.55;;
71570;SDS011;59407;42.682;23.322;2024-03-07T19:00:29;5.77;;;2.97;;
71570;SDS011;59407;42.682;23.322;2024-03-07T19:03:26;5.15;;;2.83;;
71570;SDS011;59407;42.682;23.322;2024-03-07T19:05:53;4.72;;;2.88;;
71570;SDS011;59407;42.682;23.322;2024-03-07T19:08:21;4.03;;;2.78;;
71570;SDS011;59407;42.682;23.322;2024-03-07T19:10:49;5.13;;;2.95;;
71570;SDS011;59407;42.682;23.322;2024-03-07T19:13:23;4.93;;;2.77;;
71570;SDS011;59407;42.682;23.322;2024-03-07T19:15:52;6.72;;;3.03;;
71570;SDS011;59407;42.682;23.322;2024-03-07T19:18:21;5.65;;;3.10;;
71570;SDS011;59407;42.682;23.322;2024-03-07T19:20:47;6.60;;;3.10;;
71570;SDS011;59407;42.682;23.322;2024-03-07T19:23:14;5.50;;;3.30;;
71570;SDS011;59407;42.682;23.322;2024-03-07T19:25:42;6.72;;;2.85;;
71570;SDS011;59407;42.682;23.322;2024-03-07T19:28:11;6.35;;;3.60;;
71570;SDS011;59407;42.682;23.322;2024-03-07T19:30:44;8.02;;;3.80;;
71570;SDS011;59407;42.682;23.322;2024-03-07T19:33:15;7.55;;;3.67;;
71570;SDS011;59407;42.682;23.322;2024-03-07T19:35:44;6.20;;;3.60;;
71570;SDS011;59407;42.682;23.322;2024-03-07T19:38:15;7.00;;;4.05;;
71570;SDS011;59407;42.682;23.322;2024-03-07T19:40:43;7.97;;;3.78;;
71570;SDS011;59407;42.682;23.322;2024-03-07T19:43:10;7.05;;;3.90;;
71570;SDS011;59407;42.682;23.322;2024-03-07T19:45:39;9.02;;;4.03;;
71570;SDS011;59407;42.682;23.322;2024-03-07T19:48:07;7.13;;;4.07;;
71570;SDS011;59407;42.682;23.322;2024-03-07T19:50:38;6.90;;;3.58;;
71570;SDS011;59407;42.682;23.322;2024-03-07T19:53:05;6.70;;;3.65;;
71570;SDS011;59407;42.682;23.322;2024-03-07T19:55:38;6.30;;;3.65;;
71570;SDS011;59407;42.682;23.322;2024-03-07T19:58:07;7.75;;;3.90;;
71570;SDS011;59407;42.682;23.322;2024-03-07T20:00:33;6.50;;;4.03;;
71570;SDS011;59407;42.682;23.322;2024-03-07T20:03:01;9.65;;;4.07;;
71570;SDS011;59407;42.682;23.322;2024-03-07T20:05:32;8.05;;;4.10;;
71570;SDS011;59407;42.682;23.322;2024-03-07T20:07:59;9.82;;;4.63;;
71570;SDS011;59407;42.682;23.322;2024-03-07T20:10:25;6.03;;;3.20;;
71570;SDS011;59407;42.682;23.322;2024-03-07T20:12:55;7.90;;;3.47;;
71570;SDS011;59407;42.682;23.322;2024-03-07T20:15:22;7.20;;;3.50;;
71570;SDS011;59407;42.682;23.322;2024-03-07T20:18:10;8.85;;;4.25;;
71570;SDS011;59407;42.682;23.322;2024-03-07T20:20:35;7.10;;;3.47;;
71570;SDS011;59407;42.682;23.322;2024-03-07T20:23:02;7.95;;;3.75;;
71570;SDS011;59407;42.682;23.322;2024-03-07T20:25:30;9.15;;;4.45;;
71570;SDS011;59407;42.682;23.322;2024-03-07T20:28:03;6.63;;;3.25;;
71570;SDS011;59407;42.682;23.322;2024-03-07T20:30:58;9.05;;;4.60;;
71570;SDS011;59407;42.682;23.322;2024-03-07T20:33:28;10.17;;;5.23;;
71570;SDS011;59407;42.682;23.322;2024-03-07T20:45:06;8.77;;;4.60;;
71570;SDS011;59407;42.682;23.322;2024-03-07T20:47:46;12.07;;;6.03;;
71570;SDS011;59407;42.682;23.322;2024-03-07T20:50:16;13.27;;;6.82;;
71570;SDS011;59407;42.682;23.322;2024-03-07T20:52:45;12.60;;;6.97;;
71570;SDS011;59407;42.682;23.322;2024-03-07T20:55:17;14.15;;;6.78;;
71570;SDS011;59407;42.682;23.322;2024-03-07T20:57:51;21.15;;;10.25;;
71570;SDS011;59407;42.682;23.322;2024-03-07T21:00:21;18.63;;;9.73;;
71570;SDS011;59407;42.682;23.322;2024-03-07T21:02:55;19.83;;;9.85;;
71570;SDS011;59407;42.682;23.322;2024-03-07T21:05:25;19.65;;;9.77;;
71570;SDS011;59407;42.682;23.322;2024-03-07T21:07:57;16.45;;;8.77;;
71570;SDS011;59407;42.682;23.322;2024-03-07T21:10:24;15.45;;;8.20;;
71570;SDS011;59407;42.682;23.322;2024-03-07T21:12:53;17.07;;;7.80;;
71570;SDS011;59407;42.682;23.322;2024-03-07T21:15:20;16.63;;;7.28;;